EZY57AY EGKK-LPFR
Flight info
| Callsign | EZY57AY |
|---|---|
| Flight time | N/A |
| Altitude | 35000 |
| Route | IMVUR N63 SAM M195 LORKU DCT POZOF DCT BALDA DCT ABUPI DCT ORVED DCT UPULO DCT ALAGU |
| Aircraft | A320/M-SDE2E3FGHIJ1RWXYZ/LB1 |
Departure
| Time | 2026-05-06 18:10 |
|---|---|
| Airport | London Gatwick Airport (EGKK) |
Arrival
| Time | N/A |
|---|---|
| Airport | Faro - Gago Coutinho International Airport (LPFR) |
| Time | Latitude | Longitude | Altitude | Speed | Heading |
|---|---|---|---|---|---|
| 2026-05-06 17:21 | 51.15931 | -0.17159 | 212 ft | 0 kts | 317° |
| 2026-05-06 17:39 | 51.15925 | -0.17150 | 216 ft | 3 kts | 317° |
| 2026-05-06 17:40 | 51.15910 | -0.17128 | 217 ft | 3 kts | 317° |
| 2026-05-06 17:40 | 51.15896 | -0.17108 | 216 ft | 3 kts | 311° |
| 2026-05-06 17:40 | 51.15887 | -0.17086 | 215 ft | 3 kts | 262° |
| 2026-05-06 17:40 | 51.15894 | -0.17064 | 217 ft | 3 kts | 213° |
| 2026-05-06 17:41 | 51.15909 | -0.17049 | 215 ft | 3 kts | 214° |
| 2026-05-06 17:41 | 51.15926 | -0.17030 | 212 ft | 3 kts | 221° |
| 2026-05-06 17:41 | 51.15940 | -0.17008 | 214 ft | 3 kts | 229° |
| 2026-05-06 17:41 | 51.15953 | -0.16983 | 209 ft | 3 kts | 237° |
| 2026-05-06 17:42 | 51.15963 | -0.16955 | 210 ft | 3 kts | 245° |
| 2026-05-06 17:42 | 51.15970 | -0.16925 | 217 ft | 3 kts | 253° |
| 2026-05-06 17:42 | 51.15974 | -0.16901 | 216 ft | 1 kts | 258° |
| 2026-05-06 17:42 | 51.15975 | -0.16899 | 216 ft | 0 kts | 259° |
| 2026-05-06 17:50 | 51.15974 | -0.16901 | 216 ft | 2 kts | 258° |
| 2026-05-06 17:50 | 51.15947 | -0.16989 | 215 ft | 16 kts | 231° |
| 2026-05-06 17:50 | 51.15845 | -0.17082 | 205 ft | 14 kts | 197° |
| 2026-05-06 17:50 | 51.15805 | -0.17200 | 216 ft | 13 kts | 258° |
| 2026-05-06 17:51 | 51.15779 | -0.17387 | 205 ft | 21 kts | 258° |
| 2026-05-06 17:51 | 51.15719 | -0.17503 | 210 ft | 14 kts | 169° |
| 2026-05-06 17:51 | 51.15619 | -0.17468 | 208 ft | 18 kts | 168° |
| 2026-05-06 17:51 | 51.15478 | -0.17417 | 209 ft | 22 kts | 166° |
| 2026-05-06 17:52 | 51.15343 | -0.17372 | 209 ft | 17 kts | 172° |
| 2026-05-06 17:52 | 51.15294 | -0.17503 | 205 ft | 17 kts | 263° |
| 2026-05-06 17:52 | 51.15266 | -0.17711 | 208 ft | 20 kts | 257° |
| 2026-05-06 17:52 | 51.15235 | -0.17928 | 205 ft | 20 kts | 257° |
| 2026-05-06 17:53 | 51.15206 | -0.18137 | 205 ft | 17 kts | 260° |
| 2026-05-06 17:53 | 51.15129 | -0.18205 | 207 ft | 13 kts | 197° |
| 2026-05-06 17:53 | 51.15089 | -0.18369 | 206 ft | 22 kts | 257° |
| 2026-05-06 17:53 | 51.15050 | -0.18659 | 205 ft | 29 kts | 257° |
| 2026-05-06 17:54 | 51.15007 | -0.18975 | 210 ft | 29 kts | 257° |
| 2026-05-06 17:54 | 51.14970 | -0.19227 | 216 ft | 10 kts | 257° |
| 2026-05-06 17:54 | 51.14969 | -0.19236 | 213 ft | 0 kts | 257° |
| 2026-05-06 17:58 | 51.14969 | -0.19239 | 213 ft | 2 kts | 257° |
| 2026-05-06 17:58 | 51.14955 | -0.19332 | 216 ft | 15 kts | 256° |
| 2026-05-06 17:59 | 51.14932 | -0.19494 | 207 ft | 15 kts | 258° |
| 2026-05-06 17:59 | 51.14911 | -0.19650 | 216 ft | 17 kts | 258° |
| 2026-05-06 17:59 | 51.14874 | -0.19915 | 210 ft | 31 kts | 257° |
| 2026-05-06 17:59 | 51.14828 | -0.20259 | 203 ft | 26 kts | 259° |
| 2026-05-06 18:00 | 51.14808 | -0.20443 | 209 ft | 12 kts | 250° |
| 2026-05-06 18:00 | 51.14788 | -0.20560 | 210 ft | 10 kts | 257° |
| 2026-05-06 18:00 | 51.14767 | -0.20703 | 213 ft | 19 kts | 257° |
| 2026-05-06 18:00 | 51.14740 | -0.20906 | 215 ft | 11 kts | 257° |
| 2026-05-06 18:01 | 51.14703 | -0.20979 | 207 ft | 8 kts | 203° |
| 2026-05-06 18:01 | 51.14657 | -0.20969 | 209 ft | 5 kts | 164° |
| 2026-05-06 18:01 | 51.14653 | -0.20967 | 210 ft | 0 kts | 164° |
| 2026-05-06 18:08 | 51.14623 | -0.20951 | 214 ft | 11 kts | 159° |
| 2026-05-06 18:09 | 51.14573 | -0.20886 | 209 ft | 8 kts | 122° |
| 2026-05-06 18:09 | 51.14574 | -0.20782 | 209 ft | 13 kts | 78° |
| 2026-05-06 18:09 | 51.14633 | -0.20361 | 211 ft | 73 kts | 77° |
| 2026-05-06 18:09 | 51.14785 | -0.19254 | 214 ft | 130 kts | 77° |
| 2026-05-06 18:10 | 51.14999 | -0.17627 | 381 ft | 158 kts | 78° |
| 2026-05-06 18:10 | 51.15198 | -0.15937 | 1125 ft | 155 kts | 76° |
| 2026-05-06 18:10 | 51.15425 | -0.14243 | 1709 ft | 162 kts | 73° |
| 2026-05-06 18:10 | 51.15694 | -0.12377 | 1996 ft | 184 kts | 73° |
| 2026-05-06 18:11 | 51.15984 | -0.10360 | 2236 ft | 205 kts | 75° |
| 2026-05-06 18:11 | 51.16319 | -0.08021 | 2620 ft | 224 kts | 73° |
| 2026-05-06 18:11 | 51.17002 | -0.05815 | 2951 ft | 222 kts | 41° |
| 2026-05-06 18:11 | 51.18360 | -0.04838 | 3002 ft | 217 kts | 0° |
| 2026-05-06 18:12 | 51.19848 | -0.05238 | 3007 ft | 219 kts | 347° |
| 2026-05-06 18:12 | 51.21326 | -0.05914 | 3513 ft | 223 kts | 333° |
| 2026-05-06 18:12 | 51.22448 | -0.07593 | 4353 ft | 227 kts | 299° |
| 2026-05-06 18:12 | 51.22796 | -0.10152 | 4770 ft | 253 kts | 266° |
| 2026-05-06 18:13 | 51.22535 | -0.13002 | 5422 ft | 264 kts | 262° |
| 2026-05-06 18:13 | 51.22184 | -0.15890 | 6289 ft | 267 kts | 260° |
| 2026-05-06 18:13 | 51.21817 | -0.18765 | 7090 ft | 269 kts | 260° |
| 2026-05-06 18:13 | 51.21440 | -0.21752 | 7886 ft | 273 kts | 261° |
| 2026-05-06 18:14 | 51.21075 | -0.24707 | 8666 ft | 277 kts | 261° |
| 2026-05-06 18:14 | 51.20708 | -0.27746 | 9454 ft | 281 kts | 261° |
| 2026-05-06 18:14 | 51.20343 | -0.30822 | 10200 ft | 285 kts | 261° |
| 2026-05-06 18:14 | 51.19978 | -0.33943 | 10923 ft | 287 kts | 261° |
| 2026-05-06 18:15 | 51.19599 | -0.37081 | 11665 ft | 290 kts | 260° |
| 2026-05-06 18:15 | 51.19193 | -0.40249 | 12391 ft | 293 kts | 260° |
| 2026-05-06 18:15 | 51.18773 | -0.43441 | 13131 ft | 295 kts | 259° |
| 2026-05-06 18:15 | 51.18344 | -0.46665 | 13855 ft | 298 kts | 259° |
| 2026-05-06 18:16 | 51.17913 | -0.49904 | 14497 ft | 301 kts | 259° |
| 2026-05-06 18:16 | 51.17442 | -0.53163 | 15126 ft | 304 kts | 254° |
| 2026-05-06 18:16 | 51.16660 | -0.56393 | 15368 ft | 322 kts | 249° |
| 2026-05-06 18:16 | 51.15763 | -0.59786 | 15490 ft | 341 kts | 248° |
| 2026-05-06 18:17 | 51.14822 | -0.63313 | 15887 ft | 350 kts | 248° |
| 2026-05-06 18:17 | 51.13858 | -0.66899 | 16465 ft | 354 kts | 248° |
| 2026-05-06 18:17 | 51.12882 | -0.70515 | 17060 ft | 357 kts | 248° |
| 2026-05-06 18:17 | 51.11897 | -0.74162 | 17641 ft | 360 kts | 248° |
| 2026-05-06 18:18 | 51.10994 | -0.77513 | 18193 ft | 362 kts | 248° |
| 2026-05-06 18:18 | 51.09997 | -0.81212 | 18720 ft | 365 kts | 248° |
| 2026-05-06 18:18 | 51.09103 | -0.84941 | 19203 ft | 367 kts | 257° |
| 2026-05-06 18:18 | 51.08608 | -0.88988 | 19701 ft | 369 kts | 261° |
| 2026-05-06 18:19 | 51.08179 | -0.93022 | 20202 ft | 371 kts | 261° |
| 2026-05-06 18:19 | 51.07758 | -0.97028 | 20696 ft | 374 kts | 261° |
| 2026-05-06 18:19 | 51.07330 | -1.01114 | 21188 ft | 376 kts | 261° |
| 2026-05-06 18:19 | 51.06899 | -1.05224 | 21670 ft | 378 kts | 261° |
| 2026-05-06 18:20 | 51.06468 | -1.09348 | 22160 ft | 380 kts | 261° |
| 2026-05-06 18:20 | 51.06032 | -1.13507 | 22630 ft | 382 kts | 261° |
| 2026-05-06 18:20 | 51.05594 | -1.17691 | 23096 ft | 385 kts | 261° |
| 2026-05-06 18:20 | 51.05153 | -1.21899 | 23547 ft | 387 kts | 261° |
| 2026-05-06 18:21 | 51.04711 | -1.26120 | 23926 ft | 389 kts | 261° |
| 2026-05-06 18:21 | 51.04264 | -1.30376 | 24300 ft | 391 kts | 261° |
| 2026-05-06 18:21 | 51.03572 | -1.34559 | 24651 ft | 394 kts | 246° |
| 2026-05-06 18:21 | 51.02077 | -1.38215 | 24995 ft | 399 kts | 228° |
| 2026-05-06 18:22 | 51.00005 | -1.41171 | 25337 ft | 402 kts | 221° |
| 2026-05-06 18:22 | 50.97843 | -1.43992 | 25685 ft | 404 kts | 220° |
| 2026-05-06 18:22 | 50.95489 | -1.46466 | 26024 ft | 408 kts | 212° |
| 2026-05-06 18:22 | 50.93024 | -1.48731 | 26370 ft | 410 kts | 212° |
| 2026-05-06 18:23 | 50.90547 | -1.50996 | 26711 ft | 412 kts | 212° |
| 2026-05-06 18:23 | 50.88062 | -1.53260 | 27034 ft | 414 kts | 212° |
| 2026-05-06 18:23 | 50.85559 | -1.55538 | 27367 ft | 416 kts | 212° |
| 2026-05-06 18:23 | 50.83040 | -1.57825 | 27691 ft | 418 kts | 211° |
| 2026-05-06 18:24 | 50.80509 | -1.60119 | 28018 ft | 420 kts | 211° |
| 2026-05-06 18:24 | 50.77966 | -1.62419 | 28347 ft | 422 kts | 211° |
| 2026-05-06 18:24 | 50.75415 | -1.64722 | 28674 ft | 424 kts | 211° |
| 2026-05-06 18:24 | 50.72882 | -1.67012 | 28987 ft | 426 kts | 212° |
| 2026-05-06 18:25 | 50.70276 | -1.69369 | 29289 ft | 428 kts | 211° |
| 2026-05-06 18:25 | 50.67687 | -1.71711 | 29593 ft | 430 kts | 211° |
| 2026-05-06 18:25 | 50.65086 | -1.74058 | 29885 ft | 432 kts | 211° |
| 2026-05-06 18:25 | 50.62505 | -1.76381 | 30117 ft | 434 kts | 211° |
| 2026-05-06 18:26 | 50.59842 | -1.78775 | 30308 ft | 437 kts | 211° |
| 2026-05-06 18:26 | 50.57198 | -1.81145 | 30536 ft | 438 kts | 211° |
| 2026-05-06 18:26 | 50.54543 | -1.83520 | 30766 ft | 440 kts | 211° |
| 2026-05-06 18:26 | 50.51884 | -1.85899 | 31061 ft | 439 kts | 211° |
| 2026-05-06 18:27 | 50.49233 | -1.88270 | 31432 ft | 438 kts | 211° |
| 2026-05-06 18:27 | 50.46590 | -1.90631 | 31763 ft | 436 kts | 211° |
| 2026-05-06 18:27 | 50.43960 | -1.92975 | 32106 ft | 435 kts | 211° |
| 2026-05-06 18:27 | 50.41327 | -1.95319 | 32428 ft | 434 kts | 211° |
| 2026-05-06 18:28 | 50.38734 | -1.97626 | 32723 ft | 434 kts | 211° |
| 2026-05-06 18:28 | 50.36076 | -1.99988 | 33022 ft | 434 kts | 211° |
| 2026-05-06 18:28 | 50.33484 | -2.02287 | 33329 ft | 433 kts | 211° |
| 2026-05-06 18:28 | 50.30861 | -2.04612 | 33643 ft | 433 kts | 211° |
| 2026-05-06 18:29 | 50.28243 | -2.06931 | 33982 ft | 432 kts | 211° |
| 2026-05-06 18:29 | 50.25634 | -2.09236 | 34243 ft | 431 kts | 211° |
| 2026-05-06 18:29 | 50.23018 | -2.11541 | 34475 ft | 431 kts | 211° |
| 2026-05-06 18:29 | 50.20405 | -2.13845 | 34695 ft | 431 kts | 211° |
| 2026-05-06 18:30 | 50.17794 | -2.16146 | 34906 ft | 432 kts | 211° |
| 2026-05-06 18:30 | 50.15174 | -2.18452 | 34988 ft | 432 kts | 211° |
| 2026-05-06 18:30 | 50.09966 | -2.23027 | 35005 ft | 428 kts | 211° |
| 2026-05-06 18:31 | 50.04782 | -2.27561 | 35003 ft | 427 kts | 211° |
| 2026-05-06 18:31 | 49.99595 | -2.32079 | 35002 ft | 427 kts | 211° |
| 2026-05-06 18:32 | 49.94420 | -2.36579 | 34998 ft | 426 kts | 210° |
| 2026-05-06 18:32 | 49.89098 | -2.40690 | 34994 ft | 428 kts | 206° |
| 2026-05-06 18:33 | 49.83638 | -2.44377 | 34994 ft | 428 kts | 205° |
| 2026-05-06 18:33 | 49.78172 | -2.48042 | 34999 ft | 429 kts | 206° |
| 2026-05-06 18:34 | 49.72759 | -2.51780 | 34998 ft | 429 kts | 206° |
| 2026-05-06 18:34 | 49.67320 | -2.55571 | 34994 ft | 429 kts | 206° |
| 2026-05-06 18:35 | 49.61870 | -2.59353 | 34992 ft | 429 kts | 206° |
| 2026-05-06 18:35 | 49.56418 | -2.63113 | 34994 ft | 429 kts | 206° |
| 2026-05-06 18:36 | 49.50963 | -2.66875 | 34994 ft | 429 kts | 206° |
| 2026-05-06 18:36 | 49.45515 | -2.70625 | 34987 ft | 429 kts | 206° |
| 2026-05-06 18:37 | 49.40979 | -2.73725 | 34989 ft | 429 kts | 206° |
| 2026-05-06 18:37 | 49.34598 | -2.78075 | 34990 ft | 429 kts | 206° |
| 2026-05-06 18:38 | 49.29141 | -2.81802 | 34990 ft | 430 kts | 206° |
| 2026-05-06 18:38 | 49.23674 | -2.85532 | 34985 ft | 430 kts | 206° |
| 2026-05-06 18:39 | 49.18203 | -2.89247 | 34987 ft | 430 kts | 206° |
| 2026-05-06 18:40 | 49.09991 | -2.94798 | 34990 ft | 430 kts | 205° |
| 2026-05-06 18:40 | 49.04545 | -2.98464 | 34991 ft | 430 kts | 205° |
| 2026-05-06 18:41 | 48.99069 | -3.02150 | 34981 ft | 431 kts | 205° |
| 2026-05-06 18:41 | 48.93581 | -3.05835 | 34986 ft | 431 kts | 205° |
| 2026-05-06 18:42 | 48.88092 | -3.09511 | 34992 ft | 431 kts | 205° |
| 2026-05-06 18:42 | 48.82597 | -3.13181 | 34996 ft | 431 kts | 205° |
| 2026-05-06 18:43 | 48.77109 | -3.16843 | 34998 ft | 431 kts | 205° |
| 2026-05-06 18:43 | 48.71614 | -3.20503 | 34998 ft | 431 kts | 205° |
| 2026-05-06 18:44 | 48.66130 | -3.24146 | 34995 ft | 431 kts | 205° |
| 2026-05-06 18:44 | 48.60635 | -3.27774 | 34998 ft | 431 kts | 205° |
| 2026-05-06 18:45 | 48.55144 | -3.31396 | 34989 ft | 431 kts | 205° |
| 2026-05-06 18:45 | 48.49650 | -3.35008 | 34995 ft | 431 kts | 205° |
| 2026-05-06 18:46 | 48.44150 | -3.38627 | 34991 ft | 431 kts | 205° |
| 2026-05-06 18:46 | 48.38650 | -3.42231 | 34987 ft | 431 kts | 205° |
| 2026-05-06 18:47 | 48.33143 | -3.45833 | 34985 ft | 431 kts | 205° |
| 2026-05-06 18:47 | 48.27639 | -3.49412 | 34994 ft | 431 kts | 205° |
| 2026-05-06 18:48 | 48.22167 | -3.52967 | 34994 ft | 431 kts | 205° |
| 2026-05-06 18:48 | 48.16665 | -3.56535 | 34982 ft | 431 kts | 205° |
| 2026-05-06 18:49 | 48.11168 | -3.60112 | 34995 ft | 431 kts | 205° |
| 2026-05-06 18:49 | 48.05661 | -3.63676 | 34991 ft | 431 kts | 205° |
| 2026-05-06 18:50 | 48.00159 | -3.67223 | 34992 ft | 431 kts | 205° |
| 2026-05-06 18:50 | 47.94652 | -3.70767 | 34981 ft | 431 kts | 205° |
| 2026-05-06 18:51 | 47.89149 | -3.74293 | 34984 ft | 431 kts | 205° |
| 2026-05-06 18:51 | 47.83642 | -3.77819 | 34987 ft | 431 kts | 205° |
| 2026-05-06 18:52 | 47.78139 | -3.81326 | 34988 ft | 430 kts | 205° |
| 2026-05-06 18:52 | 47.72633 | -3.84839 | 34989 ft | 430 kts | 205° |
| 2026-05-06 18:53 | 47.67136 | -3.88343 | 34995 ft | 430 kts | 205° |
| 2026-05-06 18:53 | 47.61670 | -3.91814 | 34994 ft | 430 kts | 205° |
| 2026-05-06 18:54 | 47.56170 | -3.95292 | 34992 ft | 430 kts | 205° |
| 2026-05-06 18:54 | 47.50663 | -3.98757 | 34988 ft | 430 kts | 205° |
| 2026-05-06 18:55 | 47.45166 | -4.02218 | 34990 ft | 429 kts | 205° |
| 2026-05-06 18:55 | 47.39668 | -4.05683 | 34993 ft | 429 kts | 205° |
| 2026-05-06 18:56 | 47.34177 | -4.09135 | 34996 ft | 429 kts | 205° |
| 2026-05-06 18:56 | 47.28683 | -4.12575 | 34995 ft | 429 kts | 205° |
| 2026-05-06 18:57 | 47.23182 | -4.16009 | 35000 ft | 429 kts | 205° |
| 2026-05-06 18:57 | 47.18617 | -4.18848 | 35000 ft | 429 kts | 204° |
| 2026-05-06 18:58 | 47.13130 | -4.22260 | 34999 ft | 428 kts | 205° |
| 2026-05-06 18:58 | 47.07636 | -4.25659 | 34997 ft | 428 kts | 205° |
| 2026-05-06 18:59 | 47.02115 | -4.28923 | 35000 ft | 428 kts | 202° |
| 2026-05-06 18:59 | 46.96520 | -4.31952 | 35000 ft | 428 kts | 202° |
| 2026-05-06 19:00 | 46.90922 | -4.34936 | 35000 ft | 428 kts | 201° |
| 2026-05-06 19:00 | 46.85337 | -4.37970 | 34997 ft | 428 kts | 202° |
| 2026-05-06 19:01 | 46.79762 | -4.41020 | 35003 ft | 428 kts | 202° |
| 2026-05-06 19:01 | 46.74181 | -4.44063 | 35003 ft | 428 kts | 202° |
| 2026-05-06 19:02 | 46.68604 | -4.47088 | 35006 ft | 428 kts | 202° |
| 2026-05-06 19:02 | 46.63025 | -4.50108 | 35003 ft | 428 kts | 202° |
| 2026-05-06 19:03 | 46.57445 | -4.53137 | 35006 ft | 428 kts | 202° |
| 2026-05-06 19:03 | 46.51863 | -4.56156 | 35010 ft | 428 kts | 202° |
| 2026-05-06 19:04 | 46.46285 | -4.59159 | 35006 ft | 428 kts | 201° |
| 2026-05-06 19:04 | 46.40704 | -4.62144 | 35008 ft | 428 kts | 201° |
| 2026-05-06 19:05 | 46.35116 | -4.65133 | 35010 ft | 428 kts | 202° |
| 2026-05-06 19:05 | 46.29536 | -4.68119 | 35012 ft | 428 kts | 202° |
| 2026-05-06 19:06 | 46.23950 | -4.71107 | 35007 ft | 428 kts | 202° |
| 2026-05-06 19:06 | 46.18366 | -4.74082 | 35012 ft | 428 kts | 202° |
| 2026-05-06 19:07 | 46.12809 | -4.77027 | 35013 ft | 428 kts | 201° |
| 2026-05-06 19:07 | 46.07221 | -4.79987 | 35017 ft | 428 kts | 201° |
| 2026-05-06 19:08 | 46.01637 | -4.82936 | 35012 ft | 428 kts | 201° |
| 2026-05-06 19:08 | 45.96053 | -4.85898 | 35019 ft | 427 kts | 201° |
| 2026-05-06 19:09 | 45.90466 | -4.88839 | 35020 ft | 427 kts | 201° |
| 2026-05-06 19:09 | 45.84886 | -4.91766 | 35015 ft | 427 kts | 201° |
| 2026-05-06 19:10 | 45.79308 | -4.94690 | 35010 ft | 427 kts | 201° |
| 2026-05-06 19:10 | 45.73725 | -4.97611 | 35012 ft | 427 kts | 201° |
| 2026-05-06 19:11 | 45.68147 | -5.00534 | 35014 ft | 427 kts | 201° |
| 2026-05-06 19:11 | 45.62566 | -5.03438 | 35017 ft | 427 kts | 201° |
| 2026-05-06 19:12 | 45.56988 | -5.06321 | 35015 ft | 426 kts | 201° |
| 2026-05-06 19:12 | 45.51412 | -5.09222 | 35016 ft | 426 kts | 201° |
| 2026-05-06 19:13 | 45.45883 | -5.12097 | 35010 ft | 426 kts | 201° |
| 2026-05-06 19:13 | 45.40279 | -5.14988 | 35013 ft | 426 kts | 201° |
| 2026-05-06 19:14 | 45.34744 | -5.17829 | 35016 ft | 425 kts | 201° |
| 2026-05-06 19:14 | 45.29184 | -5.20685 | 35016 ft | 425 kts | 201° |
| 2026-05-06 19:15 | 45.23619 | -5.23546 | 35012 ft | 425 kts | 201° |
| 2026-05-06 19:15 | 45.18067 | -5.26397 | 35018 ft | 424 kts | 201° |
| 2026-05-06 19:16 | 45.12509 | -5.29241 | 35018 ft | 424 kts | 201° |
| 2026-05-06 19:16 | 45.06958 | -5.32068 | 35019 ft | 424 kts | 201° |
| 2026-05-06 19:17 | 45.01402 | -5.34896 | 35013 ft | 424 kts | 201° |
| 2026-05-06 19:17 | 44.95856 | -5.37719 | 35013 ft | 424 kts | 201° |
| 2026-05-06 19:18 | 44.90310 | -5.40531 | 35013 ft | 424 kts | 201° |
| 2026-05-06 19:18 | 44.84756 | -5.43339 | 35007 ft | 424 kts | 201° |
| 2026-05-06 19:19 | 44.79210 | -5.46138 | 35010 ft | 424 kts | 201° |
| 2026-05-06 19:19 | 44.73659 | -5.48937 | 35008 ft | 424 kts | 201° |
| 2026-05-06 19:20 | 44.68111 | -5.51723 | 35012 ft | 423 kts | 201° |
| 2026-05-06 19:20 | 44.62559 | -5.54508 | 35013 ft | 423 kts | 201° |
| 2026-05-06 19:21 | 44.57071 | -5.57482 | 35014 ft | 423 kts | 205° |
| 2026-05-06 19:21 | 44.51750 | -5.60858 | 35009 ft | 422 kts | 206° |
| 2026-05-06 19:22 | 44.46379 | -5.64321 | 35003 ft | 422 kts | 206° |
| 2026-05-06 19:22 | 44.41044 | -5.67650 | 35006 ft | 422 kts | 205° |
| 2026-05-06 19:23 | 44.35660 | -5.70937 | 35007 ft | 422 kts | 205° |
| 2026-05-06 19:23 | 44.30269 | -5.74220 | 35008 ft | 422 kts | 205° |
| 2026-05-06 19:24 | 44.24896 | -5.77514 | 35002 ft | 422 kts | 205° |
| 2026-05-06 19:24 | 44.19526 | -5.80799 | 35006 ft | 421 kts | 205° |
| 2026-05-06 19:25 | 44.14151 | -5.84071 | 35009 ft | 421 kts | 205° |
| 2026-05-06 19:25 | 44.08784 | -5.87334 | 35008 ft | 421 kts | 205° |
| 2026-05-06 19:26 | 44.03415 | -5.90601 | 35004 ft | 421 kts | 205° |
| 2026-05-06 19:26 | 43.98054 | -5.93858 | 35004 ft | 421 kts | 205° |
| 2026-05-06 19:27 | 43.92685 | -5.97105 | 35005 ft | 421 kts | 205° |
| 2026-05-06 19:27 | 43.87322 | -6.00341 | 35011 ft | 421 kts | 205° |
| 2026-05-06 19:28 | 43.81955 | -6.03576 | 35006 ft | 420 kts | 205° |
| 2026-05-06 19:28 | 43.76599 | -6.06803 | 35012 ft | 420 kts | 205° |
| 2026-05-06 19:29 | 43.71272 | -6.09998 | 35018 ft | 420 kts | 205° |
| 2026-05-06 19:29 | 43.65880 | -6.13222 | 35020 ft | 420 kts | 205° |
| 2026-05-06 19:30 | 43.60562 | -6.16396 | 35021 ft | 419 kts | 205° |
| 2026-05-06 19:30 | 43.55204 | -6.19588 | 35019 ft | 419 kts | 205° |
| 2026-05-06 19:31 | 43.49854 | -6.22777 | 35019 ft | 419 kts | 205° |
| 2026-05-06 19:31 | 43.41826 | -6.27549 | 35014 ft | 419 kts | 205° |
| 2026-05-06 19:32 | 43.36472 | -6.30723 | 35017 ft | 419 kts | 205° |
| 2026-05-06 19:32 | 43.31128 | -6.33892 | 35018 ft | 418 kts | 205° |
| 2026-05-06 19:33 | 43.25776 | -6.37050 | 35018 ft | 418 kts | 205° |
| 2026-05-06 19:33 | 43.20432 | -6.40196 | 35010 ft | 418 kts | 205° |
| 2026-05-06 19:34 | 43.15088 | -6.43342 | 35004 ft | 418 kts | 205° |
| 2026-05-06 19:34 | 43.09752 | -6.46478 | 35004 ft | 417 kts | 205° |
| 2026-05-06 19:35 | 43.04419 | -6.49604 | 34997 ft | 417 kts | 205° |
| 2026-05-06 19:35 | 42.99086 | -6.52721 | 34993 ft | 416 kts | 205° |
| 2026-05-06 19:36 | 42.93766 | -6.55822 | 34995 ft | 416 kts | 205° |
| 2026-05-06 19:36 | 42.88448 | -6.58922 | 34985 ft | 415 kts | 205° |
| 2026-05-06 19:37 | 42.83139 | -6.62013 | 34971 ft | 415 kts | 205° |
| 2026-05-06 19:37 | 42.78726 | -6.64582 | 34968 ft | 414 kts | 205° |
| 2026-05-06 19:38 | 42.72537 | -6.68170 | 34973 ft | 414 kts | 205° |
| 2026-05-06 19:38 | 42.67271 | -6.71207 | 34978 ft | 413 kts | 204° |
| 2026-05-06 19:39 | 42.61944 | -6.74275 | 34967 ft | 413 kts | 205° |
| 2026-05-06 19:39 | 42.56686 | -6.77311 | 34962 ft | 413 kts | 204° |
| 2026-05-06 19:40 | 42.51397 | -6.80348 | 34958 ft | 413 kts | 204° |
| 2026-05-06 19:40 | 42.46107 | -6.83381 | 34954 ft | 413 kts | 204° |
| 2026-05-06 19:41 | 42.40815 | -6.86414 | 34958 ft | 413 kts | 204° |
| 2026-05-06 19:41 | 42.35529 | -6.89434 | 34957 ft | 412 kts | 204° |
| 2026-05-06 19:42 | 42.30239 | -6.92453 | 34954 ft | 412 kts | 204° |
| 2026-05-06 19:42 | 42.24950 | -6.95466 | 34954 ft | 412 kts | 204° |
| 2026-05-06 19:43 | 42.19662 | -6.98470 | 34951 ft | 412 kts | 204° |
| 2026-05-06 19:43 | 42.14377 | -7.01474 | 34946 ft | 412 kts | 204° |
| 2026-05-06 19:44 | 42.09096 | -7.04477 | 34946 ft | 412 kts | 204° |
| 2026-05-06 19:44 | 42.03818 | -7.07459 | 34942 ft | 412 kts | 204° |
| 2026-05-06 19:45 | 41.98535 | -7.10438 | 34944 ft | 411 kts | 204° |
| 2026-05-06 19:45 | 41.93258 | -7.13422 | 34931 ft | 411 kts | 204° |
| 2026-05-06 19:46 | 41.87983 | -7.16399 | 34928 ft | 411 kts | 204° |
| 2026-05-06 19:46 | 41.83593 | -7.18860 | 34934 ft | 411 kts | 204° |
| 2026-05-06 19:47 | 41.78315 | -7.21808 | 34933 ft | 411 kts | 204° |
| 2026-05-06 19:47 | 41.72843 | -7.24019 | 34922 ft | 414 kts | 190° |
| 2026-05-06 19:48 | 41.67131 | -7.25044 | 34919 ft | 414 kts | 190° |
| 2026-05-06 19:48 | 41.61418 | -7.26035 | 34914 ft | 414 kts | 188° |
| 2026-05-06 19:49 | 41.55666 | -7.26676 | 34913 ft | 415 kts | 186° |
| 2026-05-06 19:49 | 41.49890 | -7.27191 | 34886 ft | 418 kts | 186° |
| 2026-05-06 19:50 | 41.44109 | -7.27691 | 34885 ft | 420 kts | 186° |
| 2026-05-06 19:50 | 41.38260 | -7.28199 | 34890 ft | 422 kts | 186° |
| 2026-05-06 19:51 | 41.32402 | -7.28710 | 34890 ft | 423 kts | 187° |
| 2026-05-06 19:51 | 41.26529 | -7.29188 | 34885 ft | 423 kts | 186° |
| 2026-05-06 19:52 | 41.20670 | -7.29710 | 34933 ft | 420 kts | 187° |
| 2026-05-06 19:52 | 41.14859 | -7.30342 | 34946 ft | 418 kts | 188° |
| 2026-05-06 19:53 | 41.09085 | -7.30991 | 34934 ft | 415 kts | 188° |
| 2026-05-06 19:53 | 41.03332 | -7.31607 | 34936 ft | 414 kts | 188° |
| 2026-05-06 19:54 | 40.97593 | -7.32197 | 34938 ft | 413 kts | 188° |
| 2026-05-06 19:54 | 40.91864 | -7.32789 | 34935 ft | 413 kts | 188° |
| 2026-05-06 19:55 | 40.86147 | -7.33403 | 34934 ft | 412 kts | 188° |
| 2026-05-06 19:55 | 40.80428 | -7.34010 | 34936 ft | 412 kts | 188° |
| 2026-05-06 19:56 | 40.74720 | -7.34606 | 34934 ft | 411 kts | 188° |
| 2026-05-06 19:56 | 40.69024 | -7.35208 | 34932 ft | 411 kts | 188° |
| 2026-05-06 19:57 | 40.63328 | -7.35801 | 34917 ft | 410 kts | 188° |
| 2026-05-06 19:57 | 40.57645 | -7.36396 | 34919 ft | 410 kts | 188° |
| 2026-05-06 19:58 | 40.51968 | -7.36985 | 34924 ft | 409 kts | 188° |
| 2026-05-06 19:58 | 40.46286 | -7.37576 | 34923 ft | 409 kts | 188° |
| 2026-05-06 19:59 | 40.40606 | -7.38167 | 34920 ft | 409 kts | 188° |
| 2026-05-06 19:59 | 40.34935 | -7.38763 | 34919 ft | 409 kts | 188° |
| 2026-05-06 20:00 | 40.29257 | -7.39352 | 34919 ft | 409 kts | 188° |
| 2026-05-06 20:00 | 40.23587 | -7.39935 | 34902 ft | 409 kts | 188° |
| 2026-05-06 20:01 | 40.17919 | -7.40525 | 34905 ft | 409 kts | 188° |
| 2026-05-06 20:01 | 40.12245 | -7.41109 | 34899 ft | 409 kts | 188° |
| 2026-05-06 20:02 | 40.06575 | -7.41693 | 34903 ft | 409 kts | 188° |
| 2026-05-06 20:02 | 40.00936 | -7.42270 | 34877 ft | 409 kts | 188° |
| 2026-05-06 20:03 | 39.95227 | -7.42848 | 34883 ft | 409 kts | 188° |
| 2026-05-06 20:03 | 39.89546 | -7.43430 | 34883 ft | 409 kts | 188° |
| 2026-05-06 20:04 | 39.83908 | -7.44007 | 34887 ft | 409 kts | 188° |
| 2026-05-06 20:04 | 39.78191 | -7.44593 | 34888 ft | 410 kts | 188° |
| 2026-05-06 20:05 | 39.72545 | -7.45164 | 34887 ft | 410 kts | 188° |
| 2026-05-06 20:05 | 39.66865 | -7.45740 | 34893 ft | 410 kts | 188° |
| 2026-05-06 20:06 | 39.61179 | -7.46315 | 34900 ft | 410 kts | 188° |
| 2026-05-06 20:06 | 39.55496 | -7.46892 | 34886 ft | 410 kts | 188° |
| 2026-05-06 20:07 | 39.49808 | -7.47468 | 34890 ft | 410 kts | 188° |
| 2026-05-06 20:07 | 39.44125 | -7.48049 | 34894 ft | 410 kts | 188° |
| 2026-05-06 20:08 | 39.38436 | -7.48634 | 34900 ft | 410 kts | 188° |
| 2026-05-06 20:08 | 39.32745 | -7.49204 | 34880 ft | 410 kts | 188° |
| 2026-05-06 20:09 | 39.27051 | -7.49770 | 34886 ft | 410 kts | 188° |
| 2026-05-06 20:09 | 39.21354 | -7.50331 | 34892 ft | 411 kts | 188° |
| 2026-05-06 20:10 | 39.15661 | -7.50903 | 34895 ft | 411 kts | 188° |
| 2026-05-06 20:10 | 39.09962 | -7.51476 | 34879 ft | 411 kts | 188° |
| 2026-05-06 20:11 | 39.04261 | -7.52043 | 34885 ft | 411 kts | 188° |
| 2026-05-06 20:11 | 38.98558 | -7.52612 | 34888 ft | 411 kts | 188° |
| 2026-05-06 20:12 | 38.92841 | -7.53186 | 34870 ft | 413 kts | 188° |
| 2026-05-06 20:12 | 38.87126 | -7.53756 | 34849 ft | 416 kts | 188° |
| 2026-05-06 20:13 | 38.81321 | -7.54326 | 34874 ft | 420 kts | 188° |
| 2026-05-06 20:13 | 38.75492 | -7.54903 | 34879 ft | 420 kts | 188° |
| 2026-05-06 20:14 | 38.69660 | -7.55481 | 34883 ft | 420 kts | 188° |
| 2026-05-06 20:14 | 38.63835 | -7.56055 | 34872 ft | 416 kts | 188° |
| 2026-05-06 20:15 | 38.60980 | -7.56335 | 34609 ft | 408 kts | 188° |
| 2026-05-06 20:15 | 38.58178 | -7.56608 | 34228 ft | 402 kts | 188° |
| 2026-05-06 20:15 | 38.55405 | -7.56879 | 33825 ft | 397 kts | 188° |
| 2026-05-06 20:15 | 38.52665 | -7.57147 | 33355 ft | 393 kts | 188° |
| 2026-05-06 20:16 | 38.49954 | -7.57414 | 32879 ft | 389 kts | 188° |
| 2026-05-06 20:16 | 38.47270 | -7.57678 | 32412 ft | 385 kts | 188° |
| 2026-05-06 20:16 | 38.44612 | -7.57940 | 31948 ft | 381 kts | 188° |
| 2026-05-06 20:16 | 38.41980 | -7.58202 | 31493 ft | 378 kts | 188° |
| 2026-05-06 20:17 | 38.39371 | -7.58461 | 31002 ft | 374 kts | 188° |
| 2026-05-06 20:17 | 38.36783 | -7.58716 | 30551 ft | 372 kts | 188° |
| 2026-05-06 20:17 | 38.34216 | -7.58967 | 30109 ft | 368 kts | 188° |
| 2026-05-06 20:17 | 38.31669 | -7.59216 | 29606 ft | 366 kts | 188° |
| 2026-05-06 20:18 | 38.29143 | -7.59462 | 29093 ft | 363 kts | 188° |
| 2026-05-06 20:18 | 38.26636 | -7.59704 | 28595 ft | 360 kts | 188° |
| 2026-05-06 20:18 | 38.24154 | -7.59945 | 28107 ft | 357 kts | 188° |
| 2026-05-06 20:18 | 38.21678 | -7.60186 | 27613 ft | 355 kts | 188° |
| 2026-05-06 20:19 | 38.19225 | -7.60428 | 27050 ft | 354 kts | 188° |
| 2026-05-06 20:19 | 38.16763 | -7.60670 | 26465 ft | 355 kts | 188° |
| 2026-05-06 20:19 | 38.14296 | -7.60909 | 25882 ft | 356 kts | 188° |
| 2026-05-06 20:19 | 38.11826 | -7.61146 | 25314 ft | 356 kts | 187° |
| 2026-05-06 20:20 | 38.09355 | -7.61386 | 24757 ft | 356 kts | 187° |
| 2026-05-06 20:20 | 38.06880 | -7.61548 | 24213 ft | 357 kts | 185° |
| 2026-05-06 20:20 | 38.04390 | -7.61589 | 23682 ft | 358 kts | 183° |
| 2026-05-06 20:20 | 38.01894 | -7.61564 | 23075 ft | 359 kts | 182° |
| 2026-05-06 20:21 | 37.99396 | -7.61517 | 22444 ft | 359 kts | 182° |
| 2026-05-06 20:21 | 37.96894 | -7.61475 | 21833 ft | 360 kts | 182° |
| 2026-05-06 20:21 | 37.94393 | -7.61449 | 21208 ft | 360 kts | 182° |
| 2026-05-06 20:21 | 37.91884 | -7.61439 | 20621 ft | 361 kts | 182° |
| 2026-05-06 20:22 | 37.89377 | -7.61440 | 20043 ft | 361 kts | 182° |
| 2026-05-06 20:22 | 37.86864 | -7.61444 | 19464 ft | 361 kts | 182° |
| 2026-05-06 20:22 | 37.84349 | -7.61450 | 18918 ft | 361 kts | 182° |
| 2026-05-06 20:22 | 37.81832 | -7.61451 | 18367 ft | 362 kts | 182° |
| 2026-05-06 20:23 | 37.79319 | -7.61451 | 17777 ft | 362 kts | 182° |
| 2026-05-06 20:23 | 37.76802 | -7.61452 | 17161 ft | 362 kts | 182° |
| 2026-05-06 20:23 | 37.74284 | -7.61452 | 16556 ft | 362 kts | 182° |
| 2026-05-06 20:23 | 37.71766 | -7.61451 | 15965 ft | 362 kts | 182° |
| 2026-05-06 20:24 | 37.69254 | -7.61451 | 15390 ft | 362 kts | 182° |
| 2026-05-06 20:24 | 37.66738 | -7.61454 | 14812 ft | 361 kts | 182° |
| 2026-05-06 20:24 | 37.64225 | -7.61458 | 14256 ft | 361 kts | 182° |
| 2026-05-06 20:24 | 37.61721 | -7.61459 | 13705 ft | 360 kts | 181° |
| 2026-05-06 20:25 | 37.59250 | -7.61459 | 13102 ft | 359 kts | 182° |
| 2026-05-06 20:25 | 37.56754 | -7.61459 | 12499 ft | 358 kts | 181° |
| 2026-05-06 20:25 | 37.54272 | -7.61458 | 11908 ft | 355 kts | 181° |
| 2026-05-06 20:25 | 37.51808 | -7.61455 | 11326 ft | 352 kts | 181° |
| 2026-05-06 20:26 | 37.49424 | -7.61456 | 10973 ft | 330 kts | 181° |
| 2026-05-06 20:26 | 37.47193 | -7.61458 | 10905 ft | 313 kts | 180° |
| 2026-05-06 20:26 | 37.45077 | -7.61460 | 10917 ft | 296 kts | 181° |
| 2026-05-06 20:26 | 37.43045 | -7.61462 | 10916 ft | 290 kts | 181° |
| 2026-05-06 20:27 | 37.41034 | -7.61463 | 10916 ft | 287 kts | 181° |
| 2026-05-06 20:27 | 37.39035 | -7.61465 | 10918 ft | 288 kts | 181° |
| 2026-05-06 20:27 | 37.37025 | -7.61468 | 10908 ft | 288 kts | 181° |
| 2026-05-06 20:27 | 37.35034 | -7.61468 | 10590 ft | 286 kts | 180° |
| 2026-05-06 20:28 | 37.33037 | -7.61467 | 10201 ft | 287 kts | 181° |
| 2026-05-06 20:28 | 37.31045 | -7.61466 | 9841 ft | 286 kts | 180° |
| 2026-05-06 20:28 | 37.29070 | -7.61464 | 9417 ft | 285 kts | 180° |
| 2026-05-06 20:28 | 37.27093 | -7.61462 | 8995 ft | 283 kts | 180° |
| 2026-05-06 20:29 | 37.25126 | -7.61460 | 8577 ft | 282 kts | 179° |
| 2026-05-06 20:29 | 37.23169 | -7.61471 | 8165 ft | 281 kts | 179° |
| 2026-05-06 20:29 | 37.21218 | -7.61470 | 7754 ft | 280 kts | 179° |
| 2026-05-06 20:29 | 37.19272 | -7.61469 | 7355 ft | 279 kts | 179° |
| 2026-05-06 20:30 | 37.17331 | -7.61469 | 6955 ft | 278 kts | 179° |
| 2026-05-06 20:30 | 37.13472 | -7.61472 | 6166 ft | 276 kts | 177° |
| 2026-05-06 20:30 | 37.11558 | -7.61472 | 5750 ft | 275 kts | 178° |
| 2026-05-06 20:31 | 37.09651 | -7.61497 | 5354 ft | 274 kts | 183° |
| 2026-05-06 20:31 | 37.07793 | -7.61981 | 4947 ft | 273 kts | 199° |
| 2026-05-06 20:31 | 37.06101 | -7.63039 | 4541 ft | 270 kts | 210° |
| 2026-05-06 20:31 | 37.04521 | -7.64203 | 4144 ft | 257 kts | 211° |
| 2026-05-06 20:32 | 37.03028 | -7.65291 | 4037 ft | 241 kts | 211° |
| 2026-05-06 20:32 | 37.01572 | -7.66351 | 4046 ft | 243 kts | 211° |
| 2026-05-06 20:32 | 37.00129 | -7.67459 | 4044 ft | 243 kts | 219° |
| 2026-05-06 20:32 | 36.98994 | -7.68942 | 4041 ft | 227 kts | 237° |
| 2026-05-06 20:33 | 36.98334 | -7.70620 | 4040 ft | 209 kts | 253° |
| 2026-05-06 20:33 | 36.98079 | -7.72396 | 3724 ft | 202 kts | 270° |
| 2026-05-06 20:33 | 36.98216 | -7.74079 | 3454 ft | 193 kts | 283° |
| 2026-05-06 20:33 | 36.98450 | -7.75704 | 3206 ft | 187 kts | 284° |
| 2026-05-06 20:34 | 36.98672 | -7.77247 | 2978 ft | 173 kts | 285° |
| 2026-05-06 20:34 | 36.98881 | -7.78695 | 2759 ft | 166 kts | 285° |
| 2026-05-06 20:34 | 36.99017 | -7.79641 | 2601 ft | 162 kts | 285° |
| 2026-05-06 20:34 | 36.99277 | -7.81445 | 2310 ft | 158 kts | 287° |
| 2026-05-06 20:35 | 36.99471 | -7.82793 | 2100 ft | 157 kts | 287° |
| 2026-05-06 20:35 | 36.99662 | -7.84123 | 1881 ft | 154 kts | 287° |
| 2026-05-06 20:35 | 36.99851 | -7.85441 | 1682 ft | 154 kts | 288° |
| 2026-05-06 20:35 | 36.99972 | -7.86295 | 1540 ft | 146 kts | 287° |
| 2026-05-06 20:36 | 37.00150 | -7.87541 | 1342 ft | 144 kts | 286° |
| 2026-05-06 20:36 | 37.00326 | -7.88765 | 1150 ft | 142 kts | 284° |
| 2026-05-06 20:36 | 37.00500 | -7.89981 | 994 ft | 142 kts | 284° |
| 2026-05-06 20:36 | 37.00681 | -7.91183 | 840 ft | 140 kts | 283° |
| 2026-05-06 20:37 | 37.00852 | -7.92397 | 639 ft | 144 kts | 283° |
| 2026-05-06 20:37 | 37.01036 | -7.93626 | 415 ft | 141 kts | 281° |
| 2026-05-06 20:37 | 37.01195 | -7.94855 | 269 ft | 143 kts | 281° |
| 2026-05-06 20:37 | 37.01371 | -7.96066 | 58 ft | 141 kts | 281° |
| 2026-05-06 20:38 | 37.01509 | -7.97152 | 20 ft | 91 kts | 271° |